createdAt,value
2024-03-14T00:02:13.182Z,11.25
2024-03-14T00:05:16.933Z,11.98
2024-03-14T00:08:19.843Z,11.30
2024-03-14T00:11:22.659Z,12.02
2024-03-14T00:14:25.364Z,12.48
2024-03-14T00:17:28.077Z,12.23
2024-03-14T00:20:30.807Z,11.43
2024-03-14T00:23:33.441Z,11.90
2024-03-14T00:26:36.103Z,11.00
2024-03-14T00:29:38.770Z,11.23
2024-03-14T00:32:41.484Z,11.70
2024-03-14T00:35:44.192Z,11.38
2024-03-14T00:38:47.782Z,11.27
2024-03-14T00:41:51.413Z,11.73
2024-03-14T00:44:54.134Z,11.57
2024-03-14T00:47:57.544Z,10.75
2024-03-14T00:51:00.660Z,10.88
2024-03-14T00:54:05.655Z,11.18
2024-03-14T00:57:08.440Z,11.02
2024-03-14T01:00:14.316Z,10.65
2024-03-14T01:03:18.355Z,11.32
2024-03-14T01:06:21.760Z,10.60
2024-03-14T01:09:26.920Z,10.50
2024-03-14T01:12:29.886Z,10.63
2024-03-14T01:15:32.580Z,10.85
2024-03-14T01:18:35.620Z,10.80
2024-03-14T01:21:38.955Z,10.40
2024-03-14T01:24:41.743Z,10.68
2024-03-14T01:27:44.770Z,10.45
2024-03-14T01:30:47.509Z,10.35
2024-03-14T01:33:51.560Z,10.88
2024-03-14T01:36:54.264Z,9.98
2024-03-14T01:39:57.226Z,10.35
2024-03-14T01:42:59.903Z,9.93
2024-03-14T01:46:03.752Z,10.05
2024-03-14T01:49:07.239Z,10.68
2024-03-14T01:52:10.006Z,11.90
2024-03-14T01:55:12.791Z,10.70
2024-03-14T01:58:16.421Z,11.23
2024-03-14T02:01:19.169Z,11.30
2024-03-14T02:04:21.882Z,11.85
2024-03-14T02:07:24.870Z,12.10
2024-03-14T02:10:27.723Z,11.32
2024-03-14T02:13:30.703Z,12.95
2024-03-14T02:16:33.519Z,12.70
2024-03-14T02:19:37.315Z,12.82
2024-03-14T02:22:40.417Z,16.98
2024-03-14T02:25:44.072Z,15.25
2024-03-14T02:28:47.044Z,15.63
2024-03-14T02:31:52.351Z,15.30
2024-03-14T02:34:55.045Z,14.65
2024-03-14T02:37:57.710Z,15.90
2024-03-14T02:41:00.387Z,15.05
2024-03-14T02:44:03.254Z,15.43
2024-03-14T02:47:08.563Z,15.57
2024-03-14T02:50:11.336Z,15.98
2024-03-14T02:53:14.904Z,17.13
2024-03-14T02:56:17.572Z,15.93
2024-03-14T02:59:20.372Z,16.98
2024-03-14T03:02:23.900Z,15.95
2024-03-14T03:05:26.865Z,16.73
2024-03-14T03:08:29.555Z,16.70
2024-03-14T03:11:33.376Z,16.33
2024-03-14T03:14:36.888Z,16.15
2024-03-14T03:17:41.044Z,16.42
2024-03-14T03:20:43.805Z,16.70
2024-03-14T03:23:46.493Z,16.38
2024-03-14T03:26:48.268Z,17.38
2024-03-14T03:32:53.657Z,16.80
2024-03-14T03:35:56.471Z,17.15
2024-03-14T03:38:58.365Z,16.60
2024-03-14T03:42:01.313Z,17.85
2024-03-14T03:45:10.762Z,18.23
2024-03-14T03:48:13.608Z,17.85
2024-03-14T03:51:15.471Z,17.20
2024-03-14T03:57:21.785Z,18.40
2024-03-14T04:03:41.494Z,18.65
2024-03-14T04:06:43.332Z,18.38
2024-03-14T04:12:49.912Z,17.98
2024-03-14T04:18:55.590Z,20.65
2024-03-14T04:21:59.576Z,20.15
2024-03-14T04:25:04.665Z,20.23
2024-03-14T04:28:09.365Z,20.35
2024-03-14T04:31:12.320Z,19.42
2024-03-14T04:34:15.619Z,19.40
2024-03-14T04:37:18.377Z,21.45
2024-03-14T04:40:21.742Z,21.83
2024-03-14T04:43:26.432Z,23.10
2024-03-14T04:46:29.133Z,23.02
2024-03-14T04:49:33.175Z,21.25
2024-03-14T04:52:35.997Z,22.08
2024-03-14T04:55:40.661Z,24.58
2024-03-14T04:58:43.329Z,23.15
2024-03-14T05:01:46.718Z,24.55
2024-03-14T05:04:49.496Z,23.75
2024-03-14T05:07:52.249Z,24.23
2024-03-14T05:10:55.013Z,25.10
2024-03-14T05:13:58.588Z,22.92
2024-03-14T05:17:01.324Z,24.85
2024-03-14T05:20:05.997Z,25.55
2024-03-14T05:23:08.714Z,24.50
2024-03-14T05:26:11.998Z,24.38
2024-03-14T05:29:14.858Z,23.38
2024-03-14T05:32:21.867Z,26.65
2024-03-14T05:35:24.525Z,24.73
2024-03-14T05:38:27.184Z,24.52
2024-03-14T05:41:30.493Z,25.95
2024-03-14T05:44:33.165Z,24.98
2024-03-14T05:47:36.910Z,25.98
2024-03-14T05:50:40.202Z,25.73
2024-03-14T05:53:43.802Z,26.05
2024-03-14T05:56:46.541Z,26.90
2024-03-14T05:59:52.606Z,28.60
2024-03-14T06:02:55.347Z,29.05
2024-03-14T06:05:58.449Z,28.27
2024-03-14T06:09:01.165Z,28.60
2024-03-14T06:12:06.309Z,28.15
2024-03-14T06:15:10.292Z,29.50
2024-03-14T06:18:13.314Z,28.52
2024-03-14T06:21:16.079Z,27.88
2024-03-14T06:24:19.099Z,29.38
2024-03-14T06:27:21.798Z,27.73
2024-03-14T06:30:26.054Z,27.58
2024-03-14T06:33:29.712Z,28.95
2024-03-14T06:36:32.499Z,28.88
2024-03-14T06:39:38.707Z,26.75
2024-03-14T06:42:42.445Z,29.90
2024-03-14T06:45:45.421Z,27.00
2024-03-14T06:48:48.209Z,28.70
2024-03-14T06:51:51.599Z,27.60
2024-03-14T06:54:55.766Z,29.17
2024-03-14T06:57:58.464Z,29.92
2024-03-14T07:01:01.200Z,28.55
2024-03-14T07:04:03.949Z,28.73
2024-03-14T07:07:06.617Z,29.45
2024-03-14T07:10:10.205Z,28.60
2024-03-14T07:13:13.470Z,28.83
2024-03-14T07:16:17.287Z,28.70
2024-03-14T07:19:22.636Z,29.75
2024-03-14T07:22:26.294Z,28.40
2024-03-14T07:25:29.032Z,27.35
2024-03-14T07:28:33.040Z,28.52
2024-03-14T07:31:35.860Z,29.48
2024-03-14T07:34:38.608Z,27.77
2024-03-14T07:37:41.271Z,30.95
2024-03-14T07:40:44.430Z,31.90
2024-03-14T07:43:47.666Z,27.90
2024-03-14T07:46:51.596Z,30.25
2024-03-14T07:49:54.331Z,30.15
2024-03-14T07:52:57.869Z,29.42
2024-03-14T07:56:00.569Z,30.67
2024-03-14T07:59:03.449Z,28.70
2024-03-14T08:02:08.471Z,31.10
2024-03-14T08:05:12.794Z,30.73
2024-03-14T08:08:22.537Z,31.63
2024-03-14T08:11:30.386Z,29.20
2024-03-14T08:14:34.846Z,30.60
2024-03-14T08:17:37.542Z,31.48
2024-03-14T08:20:40.986Z,30.30
2024-03-14T08:23:43.717Z,30.42
2024-03-14T08:26:48.372Z,31.58
2024-03-14T08:29:51.276Z,32.35
2024-03-14T08:32:54.851Z,33.03
2024-03-14T08:35:58.425Z,30.00
2024-03-14T08:39:01.652Z,30.77
2024-03-14T08:42:06.160Z,30.40
2024-03-14T08:45:11.041Z,29.00
2024-03-14T08:48:13.861Z,28.38
2024-03-14T08:51:16.720Z,27.17
2024-03-14T08:54:35.266Z,26.27
2024-03-14T08:57:38.164Z,23.52
2024-03-14T09:00:41.257Z,24.48
2024-03-14T09:03:44.193Z,23.33
2024-03-14T09:06:46.970Z,22.80
2024-03-14T09:09:50.427Z,22.15
2024-03-14T09:12:53.723Z,21.05
2024-03-14T09:15:56.464Z,20.25
2024-03-14T09:18:59.215Z,21.73
2024-03-14T09:22:02.545Z,19.33
2024-03-14T09:25:08.095Z,20.52
2024-03-14T09:28:12.667Z,18.88
2024-03-14T09:31:15.385Z,18.45
2024-03-14T09:34:18.928Z,17.80
2024-03-14T09:37:26.336Z,18.58
2024-03-14T09:40:29.219Z,16.42
2024-03-14T09:43:31.930Z,17.85
2024-03-14T09:46:35.488Z,18.23
2024-03-14T09:49:38.168Z,17.77
2024-03-14T09:52:40.859Z,18.88
2024-03-14T09:55:43.606Z,16.63
2024-03-14T09:58:46.305Z,18.77
2024-03-14T10:01:50.716Z,19.20
2024-03-14T10:04:53.389Z,18.17
2024-03-14T10:07:56.959Z,18.95
2024-03-14T10:10:59.686Z,18.58
2024-03-14T10:14:07.917Z,17.70
2024-03-14T10:17:11.982Z,16.75
2024-03-14T10:20:15.893Z,17.88
2024-03-14T10:23:19.677Z,17.48
2024-03-14T10:26:23.816Z,18.23
2024-03-14T10:29:30.248Z,19.60
2024-03-14T10:32:33.160Z,18.45
2024-03-14T10:35:35.940Z,18.10
2024-03-14T10:38:38.848Z,18.33
2024-03-14T10:41:42.664Z,15.85
2024-03-14T10:44:45.362Z,16.73
2024-03-14T10:47:50.379Z,17.00
2024-03-14T10:50:55.766Z,16.00
2024-03-14T10:53:58.618Z,14.70
2024-03-14T10:57:01.366Z,15.32
2024-03-14T11:00:05.214Z,13.65
2024-03-14T11:03:08.035Z,14.43
2024-03-14T11:06:11.849Z,12.77
2024-03-14T11:09:15.054Z,13.10
2024-03-14T11:12:18.032Z,11.43
2024-03-14T11:15:22.790Z,12.40
2024-03-14T11:18:26.634Z,11.85
2024-03-14T11:21:32.934Z,10.95
2024-03-14T11:24:35.935Z,12.63
2024-03-14T11:27:38.826Z,11.25
2024-03-14T11:30:44.214Z,10.30
2024-03-14T11:33:47.199Z,10.45
2024-03-14T11:36:52.100Z,11.60
2024-03-14T11:39:54.912Z,9.98
2024-03-14T11:42:58.060Z,9.75
2024-03-14T11:46:00.777Z,8.70
2024-03-14T11:49:16.117Z,8.77
2024-03-14T11:52:19.076Z,8.50
2024-03-14T11:55:22.380Z,7.63
2024-03-14T11:58:25.245Z,7.32
2024-03-14T12:01:40.986Z,6.93
2024-03-14T12:04:50.002Z,7.22
2024-03-14T12:07:55.813Z,7.20
2024-03-14T12:10:59.639Z,7.50
2024-03-14T12:14:03.525Z,7.63
2024-03-14T12:17:06.539Z,7.57
2024-03-14T12:20:12.272Z,7.20
2024-03-14T12:23:15.172Z,7.32
2024-03-14T12:26:18.803Z,7.75
2024-03-14T12:29:22.508Z,7.47
2024-03-14T12:32:25.579Z,7.45
2024-03-14T12:35:29.120Z,7.30
2024-03-14T12:38:31.836Z,7.72
2024-03-14T12:41:35.004Z,6.45
2024-03-14T12:44:37.948Z,6.68
2024-03-14T12:47:40.630Z,6.85
2024-03-14T12:50:44.047Z,6.90
2024-03-14T12:53:55.313Z,7.50
2024-03-14T12:56:58.067Z,8.03
2024-03-14T13:00:00.960Z,7.28
2024-03-14T13:03:03.790Z,7.72
2024-03-14T13:06:06.805Z,7.88
2024-03-14T13:09:15.721Z,8.55
2024-03-14T13:12:19.780Z,6.72
2024-03-14T13:15:24.287Z,7.25
2024-03-14T13:18:28.532Z,7.60
2024-03-14T13:21:44.474Z,7.88
2024-03-14T13:24:51.025Z,7.20
2024-03-14T13:27:53.831Z,6.95
2024-03-14T13:30:56.546Z,6.00
2024-03-14T13:34:01.091Z,7.10
2024-03-14T13:37:04.443Z,7.68
2024-03-14T13:43:24.559Z,6.57
2024-03-14T13:46:32.714Z,6.72
2024-03-14T13:49:38.980Z,5.45
2024-03-14T13:52:42.193Z,5.05
2024-03-14T13:55:45.106Z,5.45
2024-03-14T13:58:48.014Z,5.95
2024-03-14T14:01:50.735Z,7.07
2024-03-14T14:04:53.570Z,7.32
2024-03-14T14:08:01.647Z,7.43
2024-03-14T14:11:05.181Z,7.75
2024-03-14T14:14:08.953Z,8.25
2024-03-14T14:17:12.004Z,7.90
2024-03-14T14:20:18.195Z,7.47
2024-03-14T14:23:21.510Z,7.88
2024-03-14T14:26:24.429Z,7.05
2024-03-14T14:29:27.281Z,7.53
2024-03-14T14:32:30.651Z,7.20
2024-03-14T14:35:33.402Z,7.25
2024-03-14T14:38:37.278Z,6.93
2024-03-14T14:41:39.976Z,7.45
2024-03-14T14:44:42.747Z,6.80
2024-03-14T14:47:46.457Z,7.68
2024-03-14T14:50:49.253Z,8.48
2024-03-14T14:53:53.149Z,8.82
2024-03-14T14:56:55.920Z,9.48
2024-03-14T14:59:58.895Z,7.82
2024-03-14T15:03:03.737Z,8.57
2024-03-14T15:06:07.191Z,8.25
2024-03-14T15:09:10.420Z,8.10
2024-03-14T15:12:13.279Z,7.75
2024-03-14T15:15:22.881Z,8.10
2024-03-14T15:18:25.731Z,9.70
2024-03-14T15:21:28.753Z,8.88
2024-03-14T15:24:32.999Z,8.40
2024-03-14T15:27:38.082Z,9.15
2024-03-14T15:30:42.407Z,8.35
2024-03-14T15:33:45.491Z,8.00
2024-03-14T15:36:48.373Z,7.32
2024-03-14T15:39:51.192Z,7.90
2024-03-14T15:42:53.881Z,7.55
2024-03-14T15:45:56.559Z,7.43
2024-03-14T15:48:59.288Z,7.40
2024-03-14T15:52:03.969Z,6.85
2024-03-14T15:55:07.936Z,7.15
2024-03-14T15:58:10.785Z,7.63
2024-03-14T16:01:14.908Z,6.40
2024-03-14T16:04:18.052Z,6.78
2024-03-14T16:07:20.732Z,7.88
2024-03-14T16:10:24.337Z,6.07
2024-03-14T16:13:27.036Z,6.50
2024-03-14T16:16:29.845Z,6.70
2024-03-14T16:19:32.755Z,6.50
2024-03-14T16:22:35.634Z,6.20
2024-03-14T16:25:39.563Z,5.65
2024-03-14T16:28:44.189Z,5.45
2024-03-14T16:31:47.097Z,6.00
2024-03-14T16:34:50.248Z,6.70
2024-03-14T16:37:52.931Z,5.95
2024-03-14T16:40:55.638Z,6.32
2024-03-14T16:43:59.526Z,5.38
2024-03-14T16:47:02.234Z,5.65
2024-03-14T16:50:05.148Z,5.03
2024-03-14T16:53:11.783Z,5.03
2024-03-14T16:56:14.600Z,5.50
2024-03-14T16:59:18.241Z,4.35
2024-03-14T17:02:21.078Z,5.25
2024-03-14T17:05:23.841Z,4.53
2024-03-14T17:08:26.484Z,4.75
2024-03-14T17:11:29.221Z,4.68
2024-03-14T17:14:33.272Z,4.50
2024-03-14T17:17:36.082Z,4.60
2024-03-14T17:20:38.898Z,4.32
2024-03-14T17:23:42.378Z,4.50
2024-03-14T17:26:45.421Z,3.63
2024-03-14T17:29:48.538Z,4.35
2024-03-14T17:32:52.224Z,3.70
2024-03-14T17:35:57.071Z,3.70
2024-03-14T17:38:59.875Z,3.88
2024-03-14T17:42:02.703Z,3.38
2024-03-14T17:45:06.536Z,3.92
2024-03-14T17:48:10.681Z,3.53
2024-03-14T17:51:13.727Z,4.03
2024-03-14T17:54:18.761Z,3.75
2024-03-14T17:57:21.583Z,4.03
2024-03-14T18:00:26.561Z,3.65
2024-03-14T18:03:29.352Z,3.55
2024-03-14T18:06:33.345Z,3.65
2024-03-14T18:09:37.595Z,4.50
2024-03-14T18:12:41.116Z,3.53
2024-03-14T18:15:44.089Z,4.00
2024-03-14T18:18:46.969Z,3.65
2024-03-14T18:21:50.421Z,3.63
2024-03-14T18:24:53.952Z,4.00
2024-03-14T18:27:56.715Z,4.28
2024-03-14T18:31:01.867Z,4.93
2024-03-14T18:34:04.742Z,4.00
2024-03-14T18:37:07.843Z,4.15
2024-03-14T18:40:11.041Z,4.80
2024-03-14T18:43:14.712Z,6.57
2024-03-14T18:46:18.302Z,6.63
2024-03-14T18:49:23.941Z,6.30
2024-03-14T18:52:26.712Z,7.00
2024-03-14T18:55:29.592Z,6.78
2024-03-14T18:58:32.348Z,6.90
2024-03-14T19:01:35.144Z,7.82
2024-03-14T19:04:37.836Z,8.15
2024-03-14T19:07:41.171Z,7.50
2024-03-14T19:10:43.975Z,7.97
2024-03-14T19:13:47.476Z,8.32
2024-03-14T19:16:50.386Z,7.95
2024-03-14T19:19:53.739Z,8.73
2024-03-14T19:22:56.501Z,7.80
2024-03-14T19:25:59.637Z,8.35
2024-03-14T19:29:02.451Z,8.55
2024-03-14T19:32:06.874Z,8.18
2024-03-14T19:35:11.675Z,7.95
2024-03-14T19:38:14.460Z,8.90
2024-03-14T19:41:17.284Z,8.35
2024-03-14T19:44:19.986Z,7.68
2024-03-14T19:47:22.655Z,8.70
2024-03-14T19:50:26.808Z,8.30
2024-03-14T19:53:30.622Z,8.55
2024-03-14T19:56:33.334Z,8.77
2024-03-14T19:59:37.829Z,9.27
2024-03-14T20:02:41.905Z,9.50
2024-03-14T20:05:45.333Z,8.52
2024-03-14T20:08:48.717Z,9.52
2024-03-14T20:11:53.249Z,9.45
2024-03-14T20:14:57.881Z,9.20
2024-03-14T20:18:01.289Z,9.70
2024-03-14T20:21:04.203Z,9.32
2024-03-14T20:24:08.028Z,10.40
2024-03-14T20:27:12.740Z,9.82
2024-03-14T20:30:15.999Z,9.70
2024-03-14T20:33:18.967Z,9.90
2024-03-14T20:36:22.346Z,9.70
2024-03-14T20:39:25.951Z,10.13
2024-03-14T20:42:32.969Z,9.38
2024-03-14T20:45:36.498Z,10.45
2024-03-14T20:48:40.183Z,10.73
2024-03-14T20:51:44.739Z,11.05
2024-03-14T20:54:47.518Z,10.90
2024-03-14T20:57:52.217Z,10.25
2024-03-14T21:00:55.349Z,10.75
2024-03-14T21:03:58.713Z,10.15
2024-03-14T21:07:01.635Z,10.35
2024-03-14T21:10:05.542Z,9.98
2024-03-14T21:13:12.000Z,10.25
2024-03-14T21:16:18.563Z,12.60
2024-03-14T21:19:21.298Z,11.05
2024-03-14T21:22:26.402Z,9.77
2024-03-14T21:25:29.736Z,11.88
2024-03-14T21:28:33.957Z,11.10
2024-03-14T21:31:36.943Z,10.73
2024-03-14T21:34:39.789Z,10.75
2024-03-14T21:37:42.509Z,10.88
2024-03-14T21:40:45.915Z,10.63
2024-03-14T21:43:48.612Z,11.30
2024-03-14T21:46:52.073Z,10.73
2024-03-14T21:49:54.802Z,10.15
2024-03-14T21:52:57.790Z,10.35
2024-03-14T21:56:00.631Z,11.13
2024-03-14T21:59:04.197Z,12.25
2024-03-14T22:02:09.542Z,11.65
2024-03-14T22:05:12.369Z,11.55
2024-03-14T22:08:20.555Z,11.38
2024-03-14T22:11:23.256Z,10.23
2024-03-14T22:14:26.228Z,11.95
2024-03-14T22:17:29.018Z,11.40
2024-03-14T22:20:31.697Z,10.65
2024-03-14T22:23:34.449Z,10.98
2024-03-14T22:26:37.123Z,10.65
2024-03-14T22:29:39.810Z,10.10
2024-03-14T22:32:42.517Z,10.18
2024-03-14T22:35:46.300Z,10.65
2024-03-14T22:38:49.082Z,10.93
2024-03-14T22:41:52.368Z,10.57
2024-03-14T22:44:55.040Z,10.90
2024-03-14T22:47:57.728Z,10.63
2024-03-14T22:51:00.462Z,10.38
2024-03-14T22:54:03.648Z,10.63
2024-03-14T22:57:07.999Z,10.00
2024-03-14T23:00:33.048Z,9.55
2024-03-14T23:03:35.758Z,9.15
2024-03-14T23:06:38.458Z,9.38
2024-03-14T23:09:41.472Z,10.20
2024-03-14T23:12:44.422Z,10.38
2024-03-14T23:15:47.426Z,9.82
2024-03-14T23:18:50.240Z,10.82
2024-03-14T23:21:53.737Z,10.88
2024-03-14T23:24:56.411Z,10.60
2024-03-14T23:27:59.439Z,11.20
2024-03-14T23:31:02.381Z,11.75
2024-03-14T23:34:05.130Z,11.70
2024-03-14T23:37:08.438Z,11.35
2024-03-14T23:40:13.524Z,11.63
2024-03-14T23:43:16.198Z,11.40
2024-03-14T23:46:19.990Z,11.45
2024-03-14T23:49:22.655Z,10.32
2024-03-14T23:52:25.676Z,11.48
2024-03-14T23:55:29.059Z,12.65
2024-03-14T23:58:32.335Z,12.18
